sensor_id;sensor_type;location;lat;lon;timestamp;P1;durP1;ratioP1;P2;durP2;ratioP2
14698;SDS011;7439;50.804;4.602;2023-08-30T00:01:12;1.10;;;1.00;;
14698;SDS011;7439;50.804;4.602;2023-08-30T00:03:41;1.30;;;1.20;;
14698;SDS011;7439;50.804;4.602;2023-08-30T00:06:09;1.20;;;1.20;;
14698;SDS011;7439;50.804;4.602;2023-08-30T00:08:37;1.13;;;1.13;;
14698;SDS011;7439;50.804;4.602;2023-08-30T00:11:04;1.23;;;1.23;;
14698;SDS011;7439;50.804;4.602;2023-08-30T00:37:39;1.50;;;1.40;;
14698;SDS011;7439;50.804;4.602;2023-08-30T00:40:07;1.60;;;1.50;;
14698;SDS011;7439;50.804;4.602;2023-08-30T00:42:34;1.60;;;1.50;;
14698;SDS011;7439;50.804;4.602;2023-08-30T00:45:02;1.50;;;1.40;;
14698;SDS011;7439;50.804;4.602;2023-08-30T00:47:30;1.70;;;1.60;;
14698;SDS011;7439;50.804;4.602;2023-08-30T00:49:57;1.67;;;1.57;;
14698;SDS011;7439;50.804;4.602;2023-08-30T00:52:25;1.73;;;1.63;;
14698;SDS011;7439;50.804;4.602;2023-08-30T00:54:53;1.40;;;1.30;;
14698;SDS011;7439;50.804;4.602;2023-08-30T00:57:21;1.67;;;1.57;;
14698;SDS011;7439;50.804;4.602;2023-08-30T00:59:48;1.50;;;1.40;;
14698;SDS011;7439;50.804;4.602;2023-08-30T01:02:17;1.60;;;1.50;;
14698;SDS011;7439;50.804;4.602;2023-08-30T01:04:46;1.60;;;1.50;;
14698;SDS011;7439;50.804;4.602;2023-08-30T01:07:14;1.40;;;1.30;;
14698;SDS011;7439;50.804;4.602;2023-08-30T01:09:41;2.10;;;1.90;;
14698;SDS011;7439;50.804;4.602;2023-08-30T01:12:11;1.67;;;1.57;;
14698;SDS011;7439;50.804;4.602;2023-08-30T01:14:42;1.60;;;1.50;;
14698;SDS011;7439;50.804;4.602;2023-08-30T01:17:11;1.90;;;1.80;;
14698;SDS011;7439;50.804;4.602;2023-08-30T01:19:42;1.70;;;1.60;;
14698;SDS011;7439;50.804;4.602;2023-08-30T01:22:12;1.83;;;1.73;;
14698;SDS011;7439;50.804;4.602;2023-08-30T01:24:42;1.80;;;1.70;;
14698;SDS011;7439;50.804;4.602;2023-08-30T01:27:12;1.50;;;1.40;;
14698;SDS011;7439;50.804;4.602;2023-08-30T01:29:42;1.47;;;1.40;;
14698;SDS011;7439;50.804;4.602;2023-08-30T01:32:10;1.73;;;1.63;;
14698;SDS011;7439;50.804;4.602;2023-08-30T01:34:39;1.80;;;1.70;;
14698;SDS011;7439;50.804;4.602;2023-08-30T01:37:06;1.73;;;1.63;;
14698;SDS011;7439;50.804;4.602;2023-08-30T01:39:34;1.73;;;1.60;;
14698;SDS011;7439;50.804;4.602;2023-08-30T01:42:01;1.70;;;1.60;;
14698;SDS011;7439;50.804;4.602;2023-08-30T01:44:31;1.50;;;1.40;;
14698;SDS011;7439;50.804;4.602;2023-08-30T01:46:59;1.70;;;1.60;;
14698;SDS011;7439;50.804;4.602;2023-08-30T01:49:30;1.80;;;1.70;;
14698;SDS011;7439;50.804;4.602;2023-08-30T01:51:58;1.50;;;1.40;;
14698;SDS011;7439;50.804;4.602;2023-08-30T01:54:26;1.67;;;1.57;;
14698;SDS011;7439;50.804;4.602;2023-08-30T01:56:55;1.70;;;1.60;;
14698;SDS011;7439;50.804;4.602;2023-08-30T01:59:23;1.70;;;1.60;;
14698;SDS011;7439;50.804;4.602;2023-08-30T02:01:52;2.13;;;1.93;;
14698;SDS011;7439;50.804;4.602;2023-08-30T02:04:19;1.60;;;1.50;;
14698;SDS011;7439;50.804;4.602;2023-08-30T02:06:48;1.80;;;1.70;;
14698;SDS011;7439;50.804;4.602;2023-08-30T02:09:17;1.63;;;1.53;;
14698;SDS011;7439;50.804;4.602;2023-08-30T02:11:46;1.63;;;1.53;;
14698;SDS011;7439;50.804;4.602;2023-08-30T02:14:15;2.50;;;2.00;;
14698;SDS011;7439;50.804;4.602;2023-08-30T02:16:43;1.80;;;1.70;;
14698;SDS011;7439;50.804;4.602;2023-08-30T02:19:13;2.17;;;2.00;;
14698;SDS011;7439;50.804;4.602;2023-08-30T02:21:42;1.60;;;1.50;;
14698;SDS011;7439;50.804;4.602;2023-08-30T02:24:09;1.73;;;1.63;;
14698;SDS011;7439;50.804;4.602;2023-08-30T02:26:37;1.70;;;1.60;;
14698;SDS011;7439;50.804;4.602;2023-08-30T02:29:04;1.77;;;1.67;;
14698;SDS011;7439;50.804;4.602;2023-08-30T02:31:32;1.70;;;1.60;;
14698;SDS011;7439;50.804;4.602;2023-08-30T02:33:59;1.80;;;1.70;;
14698;SDS011;7439;50.804;4.602;2023-08-30T02:36:29;1.80;;;1.70;;
14698;SDS011;7439;50.804;4.602;2023-08-30T02:38:57;1.80;;;1.70;;
14698;SDS011;7439;50.804;4.602;2023-08-30T02:41:25;1.80;;;1.70;;
14698;SDS011;7439;50.804;4.602;2023-08-30T02:43:52;1.70;;;1.60;;
14698;SDS011;7439;50.804;4.602;2023-08-30T02:46:19;1.70;;;1.60;;
14698;SDS011;7439;50.804;4.602;2023-08-30T02:48:47;1.70;;;1.60;;
14698;SDS011;7439;50.804;4.602;2023-08-30T02:51:14;2.00;;;1.80;;
14698;SDS011;7439;50.804;4.602;2023-08-30T02:53:43;1.70;;;1.60;;
14698;SDS011;7439;50.804;4.602;2023-08-30T02:56:11;1.57;;;1.47;;
14698;SDS011;7439;50.804;4.602;2023-08-30T02:58:38;1.70;;;1.60;;
14698;SDS011;7439;50.804;4.602;2023-08-30T03:01:07;2.73;;;1.57;;
14698;SDS011;7439;50.804;4.602;2023-08-30T03:03:42;1.90;;;1.80;;
14698;SDS011;7439;50.804;4.602;2023-08-30T03:06:13;1.67;;;1.57;;
14698;SDS011;7439;50.804;4.602;2023-08-30T03:08:40;1.60;;;1.50;;
14698;SDS011;7439;50.804;4.602;2023-08-30T03:11:09;1.57;;;1.47;;
14698;SDS011;7439;50.804;4.602;2023-08-30T03:13:36;1.80;;;1.70;;
14698;SDS011;7439;50.804;4.602;2023-08-30T03:16:09;1.40;;;1.40;;
14698;SDS011;7439;50.804;4.602;2023-08-30T03:18:37;1.57;;;1.47;;
14698;SDS011;7439;50.804;4.602;2023-08-30T03:21:05;1.67;;;1.57;;
14698;SDS011;7439;50.804;4.602;2023-08-30T03:23:32;1.83;;;1.73;;
14698;SDS011;7439;50.804;4.602;2023-08-30T03:26:07;1.70;;;1.60;;
14698;SDS011;7439;50.804;4.602;2023-08-30T03:28:36;2.70;;;1.80;;
14698;SDS011;7439;50.804;4.602;2023-08-30T03:31:10;1.70;;;1.60;;
14698;SDS011;7439;50.804;4.602;2023-08-30T03:33:38;1.77;;;1.60;;
14698;SDS011;7439;50.804;4.602;2023-08-30T03:36:06;1.80;;;1.70;;
14698;SDS011;7439;50.804;4.602;2023-08-30T03:38:34;2.00;;;1.90;;
14698;SDS011;7439;50.804;4.602;2023-08-30T03:41:02;1.83;;;1.73;;
14698;SDS011;7439;50.804;4.602;2023-08-30T03:43:30;1.87;;;1.77;;
14698;SDS011;7439;50.804;4.602;2023-08-30T03:45:59;1.80;;;1.70;;
14698;SDS011;7439;50.804;4.602;2023-08-30T03:48:26;1.90;;;1.80;;
14698;SDS011;7439;50.804;4.602;2023-08-30T03:50:54;2.00;;;1.90;;
14698;SDS011;7439;50.804;4.602;2023-08-30T03:53:21;2.50;;;1.90;;
14698;SDS011;7439;50.804;4.602;2023-08-30T03:55:49;2.00;;;1.80;;
14698;SDS011;7439;50.804;4.602;2023-08-30T03:58:16;2.87;;;2.00;;
14698;SDS011;7439;50.804;4.602;2023-08-30T04:00:43;1.83;;;1.73;;
14698;SDS011;7439;50.804;4.602;2023-08-30T04:03:13;2.17;;;1.97;;
14698;SDS011;7439;50.804;4.602;2023-08-30T04:05:41;2.10;;;2.00;;
14698;SDS011;7439;50.804;4.602;2023-08-30T04:08:08;1.90;;;1.80;;
14698;SDS011;7439;50.804;4.602;2023-08-30T04:10:36;1.80;;;1.70;;
14698;SDS011;7439;50.804;4.602;2023-08-30T04:13:03;2.00;;;1.90;;
14698;SDS011;7439;50.804;4.602;2023-08-30T04:15:32;2.20;;;2.00;;
14698;SDS011;7439;50.804;4.602;2023-08-30T04:18:00;2.40;;;2.20;;
14698;SDS011;7439;50.804;4.602;2023-08-30T04:20:29;2.00;;;1.90;;
14698;SDS011;7439;50.804;4.602;2023-08-30T04:22:57;2.40;;;2.20;;
14698;SDS011;7439;50.804;4.602;2023-08-30T04:25:26;2.07;;;1.97;;
14698;SDS011;7439;50.804;4.602;2023-08-30T04:27:54;2.20;;;2.10;;
14698;SDS011;7439;50.804;4.602;2023-08-30T04:30:21;2.27;;;2.10;;
14698;SDS011;7439;50.804;4.602;2023-08-30T04:32:48;2.30;;;2.20;;
14698;SDS011;7439;50.804;4.602;2023-08-30T04:35:16;2.33;;;2.10;;
14698;SDS011;7439;50.804;4.602;2023-08-30T04:37:45;2.63;;;2.43;;
14698;SDS011;7439;50.804;4.602;2023-08-30T04:40:13;2.57;;;2.20;;
14698;SDS011;7439;50.804;4.602;2023-08-30T04:42:41;2.17;;;2.03;;
14698;SDS011;7439;50.804;4.602;2023-08-30T04:45:08;2.33;;;2.13;;
14698;SDS011;7439;50.804;4.602;2023-08-30T04:47:36;2.20;;;2.10;;
14698;SDS011;7439;50.804;4.602;2023-08-30T04:50:03;3.43;;;2.10;;
14698;SDS011;7439;50.804;4.602;2023-08-30T04:52:31;2.60;;;2.13;;
14698;SDS011;7439;50.804;4.602;2023-08-30T04:55:00;2.30;;;2.10;;
14698;SDS011;7439;50.804;4.602;2023-08-30T04:57:27;2.30;;;2.10;;
14698;SDS011;7439;50.804;4.602;2023-08-30T04:59:55;2.30;;;2.10;;
14698;SDS011;7439;50.804;4.602;2023-08-30T05:02:22;2.20;;;2.00;;
14698;SDS011;7439;50.804;4.602;2023-08-30T05:04:50;1.93;;;1.83;;
14698;SDS011;7439;50.804;4.602;2023-08-30T05:07:17;2.30;;;2.07;;
14698;SDS011;7439;50.804;4.602;2023-08-30T05:09:45;2.40;;;2.20;;
14698;SDS011;7439;50.804;4.602;2023-08-30T05:12:13;1.70;;;1.60;;
14698;SDS011;7439;50.804;4.602;2023-08-30T05:14:41;2.00;;;1.90;;
14698;SDS011;7439;50.804;4.602;2023-08-30T05:17:08;1.70;;;1.60;;
14698;SDS011;7439;50.804;4.602;2023-08-30T05:19:35;1.60;;;1.50;;
14698;SDS011;7439;50.804;4.602;2023-08-30T05:22:03;1.60;;;1.50;;
14698;SDS011;7439;50.804;4.602;2023-08-30T05:24:31;2.03;;;1.50;;
14698;SDS011;7439;50.804;4.602;2023-08-30T05:26:58;1.50;;;1.40;;
14698;SDS011;7439;50.804;4.602;2023-08-30T05:29:27;1.67;;;1.57;;
14698;SDS011;7439;50.804;4.602;2023-08-30T05:31:54;1.53;;;1.43;;
14698;SDS011;7439;50.804;4.602;2023-08-30T05:34:22;1.27;;;1.20;;
14698;SDS011;7439;50.804;4.602;2023-08-30T05:36:52;1.40;;;1.30;;
14698;SDS011;7439;50.804;4.602;2023-08-30T05:39:19;1.20;;;1.20;;
14698;SDS011;7439;50.804;4.602;2023-08-30T05:41:46;1.30;;;1.20;;
14698;SDS011;7439;50.804;4.602;2023-08-30T05:44:14;1.40;;;1.30;;
14698;SDS011;7439;50.804;4.602;2023-08-30T05:46:42;1.33;;;1.10;;
14698;SDS011;7439;50.804;4.602;2023-08-30T05:49:10;1.40;;;1.30;;
14698;SDS011;7439;50.804;4.602;2023-08-30T05:51:38;1.10;;;1.10;;
14698;SDS011;7439;50.804;4.602;2023-08-30T05:54:05;1.20;;;1.10;;
14698;SDS011;7439;50.804;4.602;2023-08-30T05:56:33;0.90;;;0.90;;
14698;SDS011;7439;50.804;4.602;2023-08-30T05:59:00;0.87;;;0.87;;
14698;SDS011;7439;50.804;4.602;2023-08-30T06:01:27;1.00;;;1.00;;
14698;SDS011;7439;50.804;4.602;2023-08-30T06:03:56;0.80;;;0.80;;
14698;SDS011;7439;50.804;4.602;2023-08-30T06:06:23;0.90;;;0.90;;
14698;SDS011;7439;50.804;4.602;2023-08-30T06:08:52;0.73;;;0.73;;
14698;SDS011;7439;50.804;4.602;2023-08-30T06:11:19;0.70;;;0.70;;
14698;SDS011;7439;50.804;4.602;2023-08-30T06:13:47;0.80;;;0.80;;
14698;SDS011;7439;50.804;4.602;2023-08-30T06:16:14;0.73;;;0.73;;
14698;SDS011;7439;50.804;4.602;2023-08-30T06:18:42;0.67;;;0.67;;
14698;SDS011;7439;50.804;4.602;2023-08-30T06:21:10;0.70;;;0.70;;
14698;SDS011;7439;50.804;4.602;2023-08-30T06:23:38;0.80;;;0.80;;
14698;SDS011;7439;50.804;4.602;2023-08-30T06:26:05;0.60;;;0.60;;
14698;SDS011;7439;50.804;4.602;2023-08-30T06:28:32;0.63;;;0.63;;
14698;SDS011;7439;50.804;4.602;2023-08-30T06:31:00;0.60;;;0.60;;
14698;SDS011;7439;50.804;4.602;2023-08-30T06:33:27;0.43;;;0.43;;
14698;SDS011;7439;50.804;4.602;2023-08-30T06:35:54;0.70;;;0.70;;
14698;SDS011;7439;50.804;4.602;2023-08-30T06:38:23;0.63;;;0.63;;
14698;SDS011;7439;50.804;4.602;2023-08-30T06:40:51;0.60;;;0.60;;
14698;SDS011;7439;50.804;4.602;2023-08-30T06:43:18;1.07;;;1.07;;
14698;SDS011;7439;50.804;4.602;2023-08-30T06:45:46;0.80;;;0.80;;
14698;SDS011;7439;50.804;4.602;2023-08-30T06:48:13;0.53;;;0.53;;
14698;SDS011;7439;50.804;4.602;2023-08-30T06:50:40;0.80;;;0.80;;
14698;SDS011;7439;50.804;4.602;2023-08-30T06:53:08;0.83;;;0.83;;
14698;SDS011;7439;50.804;4.602;2023-08-30T06:55:37;0.70;;;0.70;;
14698;SDS011;7439;50.804;4.602;2023-08-30T06:58:04;0.80;;;0.80;;
14698;SDS011;7439;50.804;4.602;2023-08-30T07:00:32;0.80;;;0.80;;
14698;SDS011;7439;50.804;4.602;2023-08-30T07:02:59;0.90;;;0.90;;
14698;SDS011;7439;50.804;4.602;2023-08-30T07:05:26;0.60;;;0.60;;
14698;SDS011;7439;50.804;4.602;2023-08-30T07:07:54;0.77;;;0.77;;
14698;SDS011;7439;50.804;4.602;2023-08-30T07:10:21;0.70;;;0.70;;
14698;SDS011;7439;50.804;4.602;2023-08-30T07:12:50;0.70;;;0.70;;
14698;SDS011;7439;50.804;4.602;2023-08-30T07:15:17;0.67;;;0.67;;
14698;SDS011;7439;50.804;4.602;2023-08-30T07:17:44;0.70;;;0.70;;
14698;SDS011;7439;50.804;4.602;2023-08-30T07:20:12;0.47;;;0.47;;
14698;SDS011;7439;50.804;4.602;2023-08-30T07:22:39;0.50;;;0.50;;
14698;SDS011;7439;50.804;4.602;2023-08-30T07:25:07;0.50;;;0.50;;
14698;SDS011;7439;50.804;4.602;2023-08-30T07:27:35;0.30;;;0.30;;
14698;SDS011;7439;50.804;4.602;2023-08-30T07:30:04;0.40;;;0.40;;
14698;SDS011;7439;50.804;4.602;2023-08-30T07:32:32;0.60;;;0.60;;
14698;SDS011;7439;50.804;4.602;2023-08-30T07:35:01;0.50;;;0.50;;
14698;SDS011;7439;50.804;4.602;2023-08-30T07:37:28;0.40;;;0.40;;
14698;SDS011;7439;50.804;4.602;2023-08-30T07:39:55;0.50;;;0.50;;
14698;SDS011;7439;50.804;4.602;2023-08-30T07:42:23;0.50;;;0.50;;
14698;SDS011;7439;50.804;4.602;2023-08-30T07:44:50;0.77;;;0.60;;
14698;SDS011;7439;50.804;4.602;2023-08-30T07:47:19;0.60;;;0.60;;
14698;SDS011;7439;50.804;4.602;2023-08-30T07:49:46;0.77;;;0.77;;
14698;SDS011;7439;50.804;4.602;2023-08-30T07:52:14;0.60;;;0.60;;
14698;SDS011;7439;50.804;4.602;2023-08-30T07:54:41;0.40;;;0.40;;
14698;SDS011;7439;50.804;4.602;2023-08-30T07:57:08;0.60;;;0.60;;
14698;SDS011;7439;50.804;4.602;2023-08-30T07:59:36;0.50;;;0.50;;
14698;SDS011;7439;50.804;4.602;2023-08-30T08:02:03;0.30;;;0.30;;
14698;SDS011;7439;50.804;4.602;2023-08-30T08:04:34;0.40;;;0.40;;
14698;SDS011;7439;50.804;4.602;2023-08-30T08:07:02;0.40;;;0.40;;
14698;SDS011;7439;50.804;4.602;2023-08-30T08:09:30;0.47;;;0.47;;
14698;SDS011;7439;50.804;4.602;2023-08-30T08:11:57;0.60;;;0.60;;
14698;SDS011;7439;50.804;4.602;2023-08-30T08:14:25;0.50;;;0.50;;
14698;SDS011;7439;50.804;4.602;2023-08-30T08:16:52;0.20;;;0.20;;
14698;SDS011;7439;50.804;4.602;2023-08-30T08:19:19;0.33;;;0.33;;
14698;SDS011;7439;50.804;4.602;2023-08-30T08:21:48;0.40;;;0.40;;
14698;SDS011;7439;50.804;4.602;2023-08-30T08:24:15;0.50;;;0.50;;
14698;SDS011;7439;50.804;4.602;2023-08-30T08:26:43;0.30;;;0.30;;
14698;SDS011;7439;50.804;4.602;2023-08-30T08:29:11;0.40;;;0.40;;
14698;SDS011;7439;50.804;4.602;2023-08-30T08:31:39;0.47;;;0.47;;
14698;SDS011;7439;50.804;4.602;2023-08-30T08:34:08;0.50;;;0.50;;
14698;SDS011;7439;50.804;4.602;2023-08-30T08:36:36;0.57;;;0.57;;
14698;SDS011;7439;50.804;4.602;2023-08-30T08:39:05;0.40;;;0.40;;
14698;SDS011;7439;50.804;4.602;2023-08-30T08:41:38;0.27;;;0.27;;
14698;SDS011;7439;50.804;4.602;2023-08-30T08:44:06;0.40;;;0.40;;
14698;SDS011;7439;50.804;4.602;2023-08-30T08:46:34;0.30;;;0.30;;
14698;SDS011;7439;50.804;4.602;2023-08-30T08:49:05;0.40;;;0.40;;
14698;SDS011;7439;50.804;4.602;2023-08-30T08:51:36;0.60;;;0.60;;
14698;SDS011;7439;50.804;4.602;2023-08-30T08:54:05;0.40;;;0.40;;
14698;SDS011;7439;50.804;4.602;2023-08-30T08:56:34;0.50;;;0.50;;
14698;SDS011;7439;50.804;4.602;2023-08-30T08:59:02;0.50;;;0.50;;
14698;SDS011;7439;50.804;4.602;2023-08-30T09:01:30;0.40;;;0.40;;
14698;SDS011;7439;50.804;4.602;2023-08-30T09:03:58;0.30;;;0.30;;
14698;SDS011;7439;50.804;4.602;2023-08-30T09:06:26;0.50;;;0.50;;
14698;SDS011;7439;50.804;4.602;2023-08-30T09:08:55;0.30;;;0.30;;
14698;SDS011;7439;50.804;4.602;2023-08-30T09:11:24;0.20;;;0.20;;
14698;SDS011;7439;50.804;4.602;2023-08-30T09:13:51;0.37;;;0.37;;
14698;SDS011;7439;50.804;4.602;2023-08-30T09:16:19;0.30;;;0.30;;
14698;SDS011;7439;50.804;4.602;2023-08-30T09:18:56;0.30;;;0.30;;
14698;SDS011;7439;50.804;4.602;2023-08-30T09:21:23;0.13;;;0.13;;
14698;SDS011;7439;50.804;4.602;2023-08-30T09:23:56;0.60;;;0.60;;
14698;SDS011;7439;50.804;4.602;2023-08-30T09:26:25;0.20;;;0.20;;
14698;SDS011;7439;50.804;4.602;2023-08-30T09:28:53;0.47;;;0.47;;
14698;SDS011;7439;50.804;4.602;2023-08-30T09:31:20;0.40;;;0.40;;
14698;SDS011;7439;50.804;4.602;2023-08-30T09:33:48;0.23;;;0.23;;
14698;SDS011;7439;50.804;4.602;2023-08-30T09:36:18;0.33;;;0.33;;
14698;SDS011;7439;50.804;4.602;2023-08-30T09:38:48;0.37;;;0.37;;
14698;SDS011;7439;50.804;4.602;2023-08-30T09:41:16;0.50;;;0.50;;
14698;SDS011;7439;50.804;4.602;2023-08-30T09:43:45;0.50;;;0.50;;
14698;SDS011;7439;50.804;4.602;2023-08-30T09:46:13;0.50;;;0.50;;
14698;SDS011;7439;50.804;4.602;2023-08-30T09:48:41;0.50;;;0.50;;
14698;SDS011;7439;50.804;4.602;2023-08-30T09:51:08;0.50;;;0.50;;
14698;SDS011;7439;50.804;4.602;2023-08-30T09:53:40;0.30;;;0.30;;
14698;SDS011;7439;50.804;4.602;2023-08-30T09:56:10;0.80;;;0.80;;
14698;SDS011;7439;50.804;4.602;2023-08-30T09:58:38;0.70;;;0.70;;
14698;SDS011;7439;50.804;4.602;2023-08-30T10:01:09;0.50;;;0.50;;
14698;SDS011;7439;50.804;4.602;2023-08-30T10:03:37;0.77;;;0.77;;
14698;SDS011;7439;50.804;4.602;2023-08-30T10:06:05;0.90;;;0.90;;
14698;SDS011;7439;50.804;4.602;2023-08-30T10:08:33;1.10;;;1.10;;
14698;SDS011;7439;50.804;4.602;2023-08-30T10:11:02;1.00;;;1.00;;
14698;SDS011;7439;50.804;4.602;2023-08-30T10:13:30;0.80;;;0.80;;
14698;SDS011;7439;50.804;4.602;2023-08-30T10:16:00;0.80;;;0.80;;
14698;SDS011;7439;50.804;4.602;2023-08-30T10:18:31;0.70;;;0.70;;
14698;SDS011;7439;50.804;4.602;2023-08-30T10:20:59;0.60;;;0.60;;
14698;SDS011;7439;50.804;4.602;2023-08-30T10:23:29;0.60;;;0.60;;
14698;SDS011;7439;50.804;4.602;2023-08-30T10:25:57;0.77;;;0.77;;
14698;SDS011;7439;50.804;4.602;2023-08-30T10:28:25;0.67;;;0.67;;
14698;SDS011;7439;50.804;4.602;2023-08-30T10:30:53;0.67;;;0.67;;
14698;SDS011;7439;50.804;4.602;2023-08-30T10:33:20;0.77;;;0.77;;
14698;SDS011;7439;50.804;4.602;2023-08-30T10:35:52;0.93;;;0.93;;
14698;SDS011;7439;50.804;4.602;2023-08-30T10:38:27;0.80;;;0.80;;
14698;SDS011;7439;50.804;4.602;2023-08-30T10:40:54;0.80;;;0.80;;
14698;SDS011;7439;50.804;4.602;2023-08-30T10:43:28;0.70;;;0.70;;
14698;SDS011;7439;50.804;4.602;2023-08-30T10:45:59;0.70;;;0.70;;
14698;SDS011;7439;50.804;4.602;2023-08-30T10:48:34;1.00;;;1.00;;
14698;SDS011;7439;50.804;4.602;2023-08-30T10:51:04;0.60;;;0.60;;
14698;SDS011;7439;50.804;4.602;2023-08-30T10:53:32;0.80;;;0.80;;
14698;SDS011;7439;50.804;4.602;2023-08-30T10:56:02;0.70;;;0.70;;
14698;SDS011;7439;50.804;4.602;2023-08-30T10:58:38;0.60;;;0.60;;
14698;SDS011;7439;50.804;4.602;2023-08-30T11:01:07;0.90;;;0.90;;
14698;SDS011;7439;50.804;4.602;2023-08-30T11:03:35;0.70;;;0.70;;
14698;SDS011;7439;50.804;4.602;2023-08-30T11:06:03;0.83;;;0.83;;
14698;SDS011;7439;50.804;4.602;2023-08-30T11:08:31;0.70;;;0.70;;
14698;SDS011;7439;50.804;4.602;2023-08-30T11:11:01;1.03;;;1.03;;
14698;SDS011;7439;50.804;4.602;2023-08-30T11:13:29;1.13;;;1.13;;
14698;SDS011;7439;50.804;4.602;2023-08-30T11:15:59;0.90;;;0.90;;
14698;SDS011;7439;50.804;4.602;2023-08-30T11:18:28;1.70;;;1.60;;
14698;SDS011;7439;50.804;4.602;2023-08-30T11:20:59;5.83;;;5.63;;
14698;SDS011;7439;50.804;4.602;2023-08-30T11:23:28;12.63;;;12.13;;
14698;SDS011;7439;50.804;4.602;2023-08-30T11:25:56;9.97;;;9.57;;
14698;SDS011;7439;50.804;4.602;2023-08-30T11:28:23;13.00;;;12.50;;
14698;SDS011;7439;50.804;4.602;2023-08-30T11:30:52;14.53;;;13.83;;
14698;SDS011;7439;50.804;4.602;2023-08-30T11:33:20;21.03;;;20.13;;
14698;SDS011;7439;50.804;4.602;2023-08-30T11:35:48;10.20;;;9.80;;
14698;SDS011;7439;50.804;4.602;2023-08-30T11:38:16;10.97;;;10.47;;
14698;SDS011;7439;50.804;4.602;2023-08-30T11:40:45;15.40;;;14.70;;
14698;SDS011;7439;50.804;4.602;2023-08-30T11:43:15;27.13;;;26.00;;
14698;SDS011;7439;50.804;4.602;2023-08-30T11:45:43;32.53;;;31.17;;
14698;SDS011;7439;50.804;4.602;2023-08-30T11:48:10;61.40;;;58.90;;
14698;SDS011;7439;50.804;4.602;2023-08-30T11:50:39;25.63;;;24.53;;
14698;SDS011;7439;50.804;4.602;2023-08-30T11:53:07;72.63;;;69.80;;
14698;SDS011;7439;50.804;4.602;2023-08-30T11:55:34;106.43;;;102.47;;
14698;SDS011;7439;50.804;4.602;2023-08-30T11:58:03;166.10;;;159.93;;
14698;SDS011;7439;50.804;4.602;2023-08-30T12:00:32;163.13;;;156.93;;
14698;SDS011;7439;50.804;4.602;2023-08-30T12:03:03;125.07;;;120.33;;
14698;SDS011;7439;50.804;4.602;2023-08-30T12:05:32;84.33;;;81.03;;
14698;SDS011;7439;50.804;4.602;2023-08-30T12:08:01;70.47;;;67.57;;
14698;SDS011;7439;50.804;4.602;2023-08-30T12:10:29;75.07;;;72.07;;
14698;SDS011;7439;50.804;4.602;2023-08-30T12:12:57;68.87;;;65.77;;
14698;SDS011;7439;50.804;4.602;2023-08-30T12:15:26;66.03;;;63.27;;
14698;SDS011;7439;50.804;4.602;2023-08-30T12:18:05;49.93;;;47.80;;
14698;SDS011;7439;50.804;4.602;2023-08-30T12:20:33;64.20;;;61.40;;
14698;SDS011;7439;50.804;4.602;2023-08-30T12:23:01;49.20;;;46.77;;
14698;SDS011;7439;50.804;4.602;2023-08-30T12:25:28;71.20;;;68.20;;
14698;SDS011;7439;50.804;4.602;2023-08-30T12:27:57;97.53;;;93.50;;
14698;SDS011;7439;50.804;4.602;2023-08-30T12:30:26;136.97;;;131.67;;
14698;SDS011;7439;50.804;4.602;2023-08-30T12:32:59;68.23;;;65.40;;
14698;SDS011;7439;50.804;4.602;2023-08-30T12:35:27;81.60;;;78.30;;
14698;SDS011;7439;50.804;4.602;2023-08-30T12:37:55;147.80;;;142.10;;
14698;SDS011;7439;50.804;4.602;2023-08-30T12:40:22;156.80;;;150.73;;
14698;SDS011;7439;50.804;4.602;2023-08-30T12:42:50;142.23;;;136.73;;
14698;SDS011;7439;50.804;4.602;2023-08-30T12:45:17;181.20;;;174.50;;
14698;SDS011;7439;50.804;4.602;2023-08-30T12:47:46;129.10;;;124.03;;
14698;SDS011;7439;50.804;4.602;2023-08-30T12:50:13;146.53;;;140.83;;
14698;SDS011;7439;50.804;4.602;2023-08-30T12:52:40;105.33;;;100.93;;
14698;SDS011;7439;50.804;4.602;2023-08-30T12:55:08;57.10;;;54.67;;
14698;SDS011;7439;50.804;4.602;2023-08-30T12:57:35;59.27;;;56.57;;
14698;SDS011;7439;50.804;4.602;2023-08-30T13:00:03;61.47;;;58.53;;
14698;SDS011;7439;50.804;4.602;2023-08-30T13:02:30;43.73;;;41.37;;
14698;SDS011;7439;50.804;4.602;2023-08-30T13:05:00;19.93;;;18.63;;
14698;SDS011;7439;50.804;4.602;2023-08-30T13:07:29;9.07;;;8.27;;
14698;SDS011;7439;50.804;4.602;2023-08-30T13:09:57;5.67;;;3.80;;
14698;SDS011;7439;50.804;4.602;2023-08-30T13:12:24;8.17;;;3.20;;
14698;SDS011;7439;50.804;4.602;2023-08-30T13:14:51;6.73;;;3.03;;
14698;SDS011;7439;50.804;4.602;2023-08-30T13:17:19;5.43;;;2.53;;
14698;SDS011;7439;50.804;4.602;2023-08-30T13:19:46;5.97;;;3.43;;
14698;SDS011;7439;50.804;4.602;2023-08-30T13:22:15;5.67;;;3.20;;
14698;SDS011;7439;50.804;4.602;2023-08-30T13:24:43;5.30;;;3.37;;
14698;SDS011;7439;50.804;4.602;2023-08-30T13:27:12;4.33;;;3.03;;
14698;SDS011;7439;50.804;4.602;2023-08-30T13:29:40;6.83;;;2.87;;
14698;SDS011;7439;50.804;4.602;2023-08-30T13:32:07;5.17;;;3.40;;
14698;SDS011;7439;50.804;4.602;2023-08-30T13:34:34;5.40;;;2.13;;
14698;SDS011;7439;50.804;4.602;2023-08-30T13:37:02;4.07;;;2.47;;
14698;SDS011;7439;50.804;4.602;2023-08-30T13:39:31;4.77;;;2.33;;
14698;SDS011;7439;50.804;4.602;2023-08-30T13:41:58;5.00;;;2.40;;
14698;SDS011;7439;50.804;4.602;2023-08-30T13:44:25;4.40;;;2.47;;
14698;SDS011;7439;50.804;4.602;2023-08-30T13:46:53;5.70;;;2.53;;
14698;SDS011;7439;50.804;4.602;2023-08-30T13:49:20;4.00;;;2.27;;
14698;SDS011;7439;50.804;4.602;2023-08-30T13:51:47;3.37;;;2.13;;
14698;SDS011;7439;50.804;4.602;2023-08-30T13:54:15;4.20;;;1.70;;
14698;SDS011;7439;50.804;4.602;2023-08-30T13:56:43;7.00;;;3.07;;
14698;SDS011;7439;50.804;4.602;2023-08-30T13:59:11;5.07;;;2.33;;
14698;SDS011;7439;50.804;4.602;2023-08-30T14:01:39;3.73;;;2.10;;
14698;SDS011;7439;50.804;4.602;2023-08-30T14:04:06;2.63;;;1.60;;
14698;SDS011;7439;50.804;4.602;2023-08-30T14:06:34;5.37;;;2.03;;
14698;SDS011;7439;50.804;4.602;2023-08-30T14:09:01;4.40;;;2.33;;
14698;SDS011;7439;50.804;4.602;2023-08-30T14:11:30;4.53;;;2.00;;
14698;SDS011;7439;50.804;4.602;2023-08-30T14:13:58;5.20;;;2.57;;
14698;SDS011;7439;50.804;4.602;2023-08-30T14:16:26;4.70;;;2.37;;
14698;SDS011;7439;50.804;4.602;2023-08-30T14:18:54;7.63;;;2.50;;
14698;SDS011;7439;50.804;4.602;2023-08-30T14:21:25;3.50;;;2.20;;
14698;SDS011;7439;50.804;4.602;2023-08-30T14:23:52;2.77;;;1.93;;
14698;SDS011;7439;50.804;4.602;2023-08-30T14:26:19;3.87;;;2.03;;
14698;SDS011;7439;50.804;4.602;2023-08-30T14:28:47;3.70;;;2.53;;
14698;SDS011;7439;50.804;4.602;2023-08-30T14:31:15;5.10;;;2.70;;
14698;SDS011;7439;50.804;4.602;2023-08-30T14:33:43;5.13;;;2.70;;
14698;SDS011;7439;50.804;4.602;2023-08-30T14:36:11;4.33;;;2.47;;
14698;SDS011;7439;50.804;4.602;2023-08-30T14:38:39;3.80;;;2.70;;
14698;SDS011;7439;50.804;4.602;2023-08-30T14:41:07;3.63;;;2.33;;
14698;SDS011;7439;50.804;4.602;2023-08-30T14:43:34;1.77;;;1.53;;
14698;SDS011;7439;50.804;4.602;2023-08-30T14:46:02;4.63;;;2.40;;
14698;SDS011;7439;50.804;4.602;2023-08-30T14:48:39;4.47;;;2.40;;
14698;SDS011;7439;50.804;4.602;2023-08-30T14:51:06;4.20;;;2.70;;
14698;SDS011;7439;50.804;4.602;2023-08-30T14:53:33;2.83;;;1.90;;
14698;SDS011;7439;50.804;4.602;2023-08-30T14:56:01;3.83;;;2.13;;
14698;SDS011;7439;50.804;4.602;2023-08-30T14:58:32;4.63;;;2.17;;
14698;SDS011;7439;50.804;4.602;2023-08-30T15:00:59;3.20;;;2.33;;
14698;SDS011;7439;50.804;4.602;2023-08-30T15:03:28;2.63;;;2.20;;
14698;SDS011;7439;50.804;4.602;2023-08-30T15:05:57;3.50;;;2.53;;
14698;SDS011;7439;50.804;4.602;2023-08-30T15:08:25;3.10;;;2.23;;
14698;SDS011;7439;50.804;4.602;2023-08-30T15:10:52;2.70;;;2.10;;
14698;SDS011;7439;50.804;4.602;2023-08-30T15:13:20;5.67;;;2.30;;
14698;SDS011;7439;50.804;4.602;2023-08-30T15:15:47;4.97;;;2.43;;
14698;SDS011;7439;50.804;4.602;2023-08-30T15:18:15;4.63;;;2.27;;
14698;SDS011;7439;50.804;4.602;2023-08-30T15:20:42;5.57;;;2.23;;
14698;SDS011;7439;50.804;4.602;2023-08-30T15:23:14;5.93;;;2.90;;
14698;SDS011;7439;50.804;4.602;2023-08-30T15:25:44;4.03;;;2.77;;
14698;SDS011;7439;50.804;4.602;2023-08-30T15:28:14;4.27;;;2.43;;